Pollocksville, North Carolina
Current Conditions -  °F | °C
As of 2:54 PM on Sunday 23 Nov 2014 (Local Time) from KEWN Reporting Station
Light Rain Light Rain  
Wind Chill: 61°   Ceiling: 4100
Heat Index: 61°   Visibility: 9mi
Dew Point: 57°   Wind: 5mph
Humidity: 87%   Direction: 110°ESE
Pressure: 30.09"   Gusts: NA
Location:  35.01°N, 77.22°W
Report Text: KEWN 231954Z 11004KT 9SM -RA FEW021 BKN041 BKN120 16/14 A3009 RMK AO2 SLP190 P0004 T01610139
Loading
Personal Weather Stations






























Interactive Weather Map New forecast layout! Learn more

10-Day Weather Forecast

Advertisements
Track Severe Weather on mobile